Time;durP1;ratioP1;P1;durP2;ratioP2;P2;SDS_P1;SDS_P2;PMS_P1;PMS_P2;Temp;Humidity;BMP_temperature;BMP_pressure;BME280_temperature;BME280_humidity;BME280_pressure;Samples;Min_cycle;Max_cycle;Signal;HPM_P1;HPM_P2
2022/05/17 00:06:09;;;;;;;3.03;0.47;;;11.30;99.90;;;;;;21142957;28;20057;-50
2022/05/17 00:16:12;;;;;;;0.98;0.50;;;11.30;99.90;;;;;;21201970;27;20039;-51
2022/05/17 00:26:15;;;;;;;1.60;0.52;;;11.60;99.90;;;;;;21222620;27;20080;-51
2022/05/17 00:36:22;;;;;;;1.90;0.60;;;11.80;99.90;;;;;;21168027;27;20450;-59
2022/05/17 00:47:04;;;;;;;1.23;0.65;;;11.80;99.90;;;;;;21191607;27;20118;-52
2022/05/17 00:57:33;;;;;;;1.20;0.40;;;11.50;99.90;;;;;;21208575;27;20035;-54
2022/05/17 01:07:42;;;;;;;2.47;0.82;;;11.40;99.90;;;;;;21153292;27;20027;-59
2022/05/17 01:17:45;;;;;;;1.98;0.60;;;11.10;99.90;;;;;;21171190;27;20035;-51
2022/05/17 01:27:53;;;;;;;1.63;0.60;;;10.80;99.90;;;;;;21199609;27;20036;-58
2022/05/17 01:37:56;;;;;;;3.58;0.60;;;10.70;99.90;;;;;;21171558;27;20035;-59
2022/05/17 01:47:59;;;;;;;2.42;0.60;;;10.50;99.90;;;;;;21135932;28;20100;-51
2022/05/17 01:58:01;;;;;;;2.80;1.05;;;10.40;99.90;;;;;;21169523;27;20061;-51
2022/05/17 02:08:04;;;;;;;2.05;0.88;;;10.20;99.90;;;;;;21162639;27;20088;-53
2022/05/17 02:18:07;;;;;;;1.30;0.70;;;10.10;99.90;;;;;;21129160;28;20108;-51
2022/05/17 02:28:10;;;;;;;1.58;1.00;;;9.90;99.90;;;;;;21160441;27;20502;-51
2022/05/17 02:38:13;;;;;;;1.52;1.00;;;9.90;99.90;;;;;;21146896;27;20097;-50
2022/05/17 02:48:16;;;;;;;2.25;1.35;;;9.80;99.90;;;;;;21132640;28;20055;-58
2022/05/17 02:58:18;;;;;;;1.45;0.90;;;9.80;99.90;;;;;;21195470;28;20031;-50
2022/05/17 03:08:23;;;;;;;3.13;0.90;;;9.80;99.90;;;;;;21155737;28;20084;-52
2022/05/17 03:18:26;;;;;;;4.85;1.20;;;9.80;99.90;;;;;;21164796;28;20061;-58
2022/05/17 03:28:29;;;;;;;1.20;0.82;;;9.80;99.90;;;;;;21171698;27;20031;-59
2022/05/17 03:38:31;;;;;;;3.42;1.20;;;9.90;99.90;;;;;;21192061;27;20047;-59
2022/05/17 03:48:34;;;;;;;2.22;1.20;;;9.70;99.90;;;;;;21195617;27;20104;-52
2022/05/17 03:58:37;;;;;;;2.92;1.30;;;9.70;99.90;;;;;;21179862;27;20055;-49
2022/05/17 04:08:40;;;;;;;3.00;1.20;;;9.90;99.90;;;;;;21165926;27;20035;-51
2022/05/17 04:18:43;;;;;;;2.72;1.30;;;10.30;99.90;;;;;;21123583;28;20434;-50
2022/05/17 04:28:46;;;;;;;3.13;1.25;;;10.60;99.90;;;;;;21180686;27;20530;-52
2022/05/17 04:38:49;;;;;;;2.30;0.80;;;11.30;99.90;;;;;;21137140;28;20105;-53
2022/05/17 04:48:52;;;;;;;0.90;0.52;;;11.90;99.90;;;;;;21197050;27;20047;-52
2022/05/17 04:58:54;;;;;;;0.40;0.40;;;12.30;99.90;;;;;;21147167;27;20051;-52
2022/05/17 05:08:57;;;;;;;1.27;0.50;;;12.50;99.90;;;;;;21213810;27;20035;-50
2022/05/17 05:19:00;;;;;;;3.03;0.40;;;12.70;99.90;;;;;;21186341;27;20104;-51
2022/05/17 05:29:03;;;;;;;1.75;0.47;;;12.70;99.90;;;;;;21188231;27;20039;-53
2022/05/17 05:39:05;;;;;;;1.63;0.57;;;13.10;99.90;;;;;;21165564;27;20039;-53
2022/05/17 05:49:08;;;;;;;1.75;0.52;;;13.20;99.90;;;;;;21194318;27;20080;-49
2022/05/17 05:59:12;;;;;;;0.73;0.32;;;13.40;99.90;;;;;;21178467;27;20622;-59
2022/05/17 06:09:14;;;;;;;0.55;0.28;;;13.70;99.90;;;;;;21171712;27;20404;-51
2022/05/17 06:19:18;;;;;;;1.05;0.30;;;13.90;99.90;;;;;;21149539;27;20123;-54
2022/05/17 06:29:21;;;;;;;0.32;0.20;;;17.20;99.90;;;;;;21201678;27;20027;-55
2022/05/17 06:39:23;;;;;;;0.90;0.35;;;20.10;93.20;;;;;;21128646;28;20373;-59
2022/05/17 06:49:27;;;;;;;0.80;0.30;;;21.50;90.10;;;;;;21065599;28;20060;-61
2022/05/17 06:59:31;;;;;;;2.58;0.52;;;22.90;85.30;;;;;;21067109;28;20097;-56
2022/05/17 07:09:36;;;;;;;2.25;0.50;;;22.80;82.70;;;;;;21077352;28;20113;-60
2022/05/17 07:19:39;;;;;;;0.52;0.20;;;21.80;82.80;;;;;;21076457;28;20036;-56
2022/05/17 07:29:43;;;;;;;1.65;0.50;;;21.40;81.60;;;;;;21075848;28;20040;-61
2022/05/17 07:39:46;;;;;;;4.75;0.50;;;21.60;83.20;;;;;;21074852;28;20066;-62
2022/05/17 07:49:48;;;;;;;0.70;0.40;;;21.80;79.80;;;;;;21074172;28;20520;-60
2022/05/17 07:59:51;;;;;;;1.90;0.50;;;21.70;78.40;;;;;;21073275;28;20558;-61
2022/05/17 08:09:54;;;;;;;0.57;0.32;;;21.40;79.50;;;;;;21071825;28;20547;-61
2022/05/17 08:19:57;;;;;;;1.23;0.40;;;20.70;81.00;;;;;;21071366;28;21146;-61
2022/05/17 08:30:00;;;;;;;1.02;0.50;;;21.10;78.70;;;;;;21070958;28;20061;-57
2022/05/17 08:40:03;;;;;;;1.42;0.30;;;21.60;74.80;;;;;;21053570;28;20101;-61
2022/05/17 08:50:10;;;;;;;1.48;0.60;;;21.70;77.20;;;;;;21177571;27;20055;-56
2022/05/17 09:00:27;;;;;;;2.90;0.75;;;21.60;75.60;;;;;;21201801;27;20088;-57
2022/05/17 09:11:09;;;;;;;2.20;0.47;;;21.40;76.10;;;;;;21143820;27;20032;-57
2022/05/17 09:21:43;;;;;;;1.88;0.38;;;21.20;72.30;;;;;;21129072;27;20050;-61
2022/05/17 09:31:59;;;;;;;0.70;0.30;;;21.10;75.40;;;;;;20765597;28;20132;-61
2022/05/17 09:42:04;;;;;;;1.05;0.30;;;21.70;73.70;;;;;;20743286;28;20076;-62
2022/05/17 09:52:32;;;;;;;1.88;0.40;;;22.10;74.10;;;;;;21136321;27;20384;-63
2022/05/17 10:03:00;;;;;;;2.05;0.40;;;22.00;70.50;;;;;;21084811;28;20085;-62
2022/05/17 10:13:19;;;;;;;0.70;0.40;;;21.70;71.60;;;;;;21130289;28;20484;-63
2022/05/17 10:23:41;;;;;;;1.27;0.52;;;22.70;78.80;;;;;;21130013;28;20036;-63
2022/05/17 10:34:24;;;;;;;2.20;0.80;;;24.30;86.00;;;;;;21131352;28;20370;-63
2022/05/17 10:44:53;;;;;;;1.17;0.80;;;24.50;87.40;;;;;;21082971;28;20164;-65
2022/05/17 10:55:12;;;;;;;0.90;0.65;;;24.70;83.20;;;;;;21083881;28;20082;-64
2022/05/17 11:05:39;;;;;;;2.40;0.60;;;25.00;86.00;;;;;;21027404;28;20481;-64
2022/05/17 11:16:12;;;;;;;3.47;0.70;;;25.30;79.00;;;;;;21050204;28;20117;-64
2022/05/17 11:26:41;;;;;;;1.65;0.75;;;24.60;75.70;;;;;;21019826;28;20070;-65
2022/05/17 11:36:44;;;;;;;2.65;0.70;;;25.20;76.90;;;;;;21070580;28;20036;-65
2022/05/17 11:46:54;;;;;;;1.17;0.52;;;25.40;80.10;;;;;;21052748;28;20040;-66
2022/05/17 11:56:56;;;;;;;1.77;0.50;;;25.40;75.60;;;;;;21025780;28;20033;-66
2022/05/17 12:07:07;;;;;;;1.23;0.50;;;25.80;79.40;;;;;;21000740;28;20032;-59
2022/05/17 12:17:20;;;;;;;3.10;1.58;;;26.00;74.20;;;;;;21008023;28;20040;-59
2022/05/17 12:27:36;;;;;;;3.03;1.35;;;26.70;89.30;;;;;;21029551;28;20040;-67
2022/05/17 12:37:44;;;;;;;1.70;1.20;;;27.30;88.40;;;;;;21012889;28;20074;-67
2022/05/17 12:47:56;;;;;;;5.28;1.42;;;27.30;86.70;;;;;;20994555;28;20089;-68
2022/05/17 12:58:13;;;;;;;1.92;1.50;;;27.90;86.50;;;;;;21015791;28;20522;-67
2022/05/17 13:08:28;;;;;;;2.15;1.05;;;28.20;87.20;;;;;;21049926;28;20036;-67
2022/05/17 13:18:43;;;;;;;1.70;1.00;;;27.60;84.40;;;;;;21062759;28;20039;-57
2022/05/17 13:28:46;;;;;;;2.15;1.17;;;26.80;80.20;;;;;;20978911;28;20404;-67
2022/05/17 13:38:49;;;;;;;2.78;1.25;;;26.20;81.70;;;;;;21004715;28;20427;-66
2022/05/17 13:48:56;;;;;;;2.90;1.10;;;26.60;83.10;;;;;;21020877;28;20049;-68
2022/05/17 13:59:02;;;;;;;2.90;1.42;;;25.70;81.60;;;;;;21060890;28;20040;-65
2022/05/17 14:19:34;;;;;;;3.40;2.33;;;23.40;86.30;;;;;;21034609;28;20039;-63
2022/05/17 14:29:39;;;;;;;3.80;2.47;;;21.60;89.70;;;;;;21016847;28;20044;-56
2022/05/17 14:39:41;;;;;;;4.05;2.08;;;20.90;90.40;;;;;;20991033;28;20044;-63
2022/05/17 14:49:57;;;;;;;3.25;1.90;;;20.30;91.40;;;;;;21037622;28;20052;-62
2022/05/17 15:00:00;;;;;;;4.07;2.50;;;20.10;91.00;;;;;;21039044;28;20059;-63
2022/05/17 15:10:10;;;;;;;4.57;2.60;;;21.40;92.30;;;;;;21022678;28;20081;-58
2022/05/17 15:20:14;;;;;;;3.65;2.33;;;23.50;85.40;;;;;;20993379;28;20086;-63
2022/05/17 15:30:18;;;;;;;2.55;1.90;;;25.10;85.00;;;;;;20994410;28;20412;-64
2022/05/17 15:40:22;;;;;;;3.85;2.50;;;26.60;81.50;;;;;;21036398;28;20036;-59
2022/05/17 16:00:48;;;;;;;5.60;2.20;;;26.60;77.20;;;;;;21040685;28;20058;-59
2022/05/17 16:10:54;;;;;;;2.75;1.88;;;25.70;77.80;;;;;;21063683;28;20035;-63
2022/05/17 16:20:57;;;;;;;5.57;2.35;;;23.70;80.70;;;;;;21066870;28;20088;-62
2022/05/17 16:31:01;;;;;;;3.40;1.88;;;21.80;83.80;;;;;;21057320;28;20040;-61
2022/05/17 16:41:06;;;;;;;4.43;2.00;;;20.80;88.50;;;;;;21001415;28;20036;-60
2022/05/17 16:51:13;;;;;;;4.18;1.67;;;19.70;89.80;;;;;;21058099;28;20049;-61
2022/05/17 17:01:16;;;;;;;3.03;1.95;;;18.60;92.70;;;;;;21044934;28;20036;-61
2022/05/17 17:11:20;;;;;;;5.32;1.80;;;17.80;94.80;;;;;;20991610;28;20078;-54
2022/05/17 17:21:25;;;;;;;2.50;1.60;;;17.00;96.50;;;;;;21042165;28;20036;-60
2022/05/17 17:31:29;;;;;;;3.40;1.73;;;16.50;97.40;;;;;;21027752;28;20101;-61
2022/05/17 17:41:32;;;;;;;3.13;1.60;;;16.10;98.30;;;;;;21024752;28;20048;-60
2022/05/17 17:51:35;;;;;;;3.05;1.42;;;15.90;99.50;;;;;;21057232;28;20105;-61
2022/05/17 18:01:38;;;;;;;4.13;1.70;;;15.50;99.90;;;;;;21043981;28;20057;-55
2022/05/17 18:11:41;;;;;;;2.85;1.63;;;15.20;99.90;;;;;;21073246;28;20044;-61
2022/05/17 18:21:44;;;;;;;3.58;1.60;;;15.00;99.90;;;;;;21010290;28;20044;-60
2022/05/17 18:31:48;;;;;;;4.65;2.65;;;14.60;99.90;;;;;;21014371;28;20558;-51
2022/05/17 18:41:54;;;;;;;4.68;2.00;;;14.30;99.90;;;;;;21035972;28;20035;-60
2022/05/17 18:51:57;;;;;;;4.35;2.15;;;14.20;99.90;;;;;;21070496;28;20052;-54
2022/05/17 19:02:01;;;;;;;5.22;2.33;;;13.80;99.90;;;;;;21073339;28;20036;-60
2022/05/17 19:22:26;;;;;;;7.88;3.17;;;13.70;99.90;;;;;;21071240;28;20032;-54
2022/05/17 19:32:33;;;;;;;4.45;2.50;;;13.70;99.90;;;;;;21050074;28;20071;-60
2022/05/17 19:42:37;;;;;;;5.95;2.50;;;13.60;99.90;;;;;;21031957;28;20105;-60
2022/05/17 19:52:40;;;;;;;6.80;3.38;;;13.40;99.90;;;;;;21055062;28;20031;-56
2022/05/17 20:02:44;;;;;;;5.07;3.22;;;13.30;99.90;;;;;;21036484;28;20070;-52
2022/05/17 20:12:49;;;;;;;5.40;3.28;;;13.40;99.90;;;;;;21042217;28;20044;-54
2022/05/17 20:22:53;;;;;;;5.63;3.10;;;13.50;99.90;;;;;;21041218;28;20028;-60
2022/05/17 20:32:59;;;;;;;7.68;3.53;;;13.70;99.90;;;;;;21010534;28;20036;-60
2022/05/17 20:43:02;;;;;;;4.00;2.83;;;13.50;99.90;;;;;;21049929;28;20118;-60
2022/05/17 20:53:07;;;;;;;5.35;2.95;;;13.50;99.90;;;;;;21060580;28;20550;-60
2022/05/17 21:03:09;;;;;;;5.40;2.70;;;13.20;99.90;;;;;;21063783;28;20032;-60
2022/05/17 21:13:12;;;;;;;4.45;2.35;;;13.00;99.90;;;;;;21063515;28;20032;-60
2022/05/17 21:23:16;;;;;;;5.18;2.80;;;12.80;99.90;;;;;;21062782;28;20355;-60
2022/05/17 21:33:19;;;;;;;5.95;2.55;;;12.60;99.90;;;;;;21056951;28;20086;-54
2022/05/17 21:43:21;;;;;;;5.22;2.90;;;12.50;99.90;;;;;;21033905;28;20051;-60
2022/05/17 21:53:25;;;;;;;4.70;2.30;;;12.60;99.90;;;;;;21181497;28;20429;-60
2022/05/17 22:03:28;;;;;;;5.70;2.70;;;12.60;99.90;;;;;;21172614;28;20027;-60
2022/05/17 22:13:47;;;;;;;4.57;2.90;;;12.40;99.90;;;;;;21166734;28;20057;-60
2022/05/17 22:23:53;;;;;;;6.65;3.47;;;12.30;99.90;;;;;;21161178;28;20036;-60
2022/05/17 22:33:56;;;;;;;5.75;3.30;;;12.40;99.90;;;;;;21182149;28;20104;-60
2022/05/17 22:43:59;;;;;;;8.55;4.30;;;12.20;99.90;;;;;;21200760;28;20039;-52
2022/05/17 22:54:03;;;;;;;6.03;3.92;;;12.10;99.90;;;;;;21185781;27;20499;-53
2022/05/17 23:04:06;;;;;;;10.80;3.28;;;12.20;99.90;;;;;;21177429;27;20091;-54
2022/05/17 23:14:08;;;;;;;6.68;3.50;;;12.20;99.90;;;;;;21206092;27;20092;-54
2022/05/17 23:28:23;;;;;;;9.15;4.78;;;12.20;99.90;;;;;;21198817;27;20270;-60
2022/05/17 23:34:34;;;;;;;7.78;5.15;;;12.10;99.90;;;;;;21211049;27;20035;-51
2022/05/17 23:44:37;;;;;;;7.15;4.50;;;12.00;99.90;;;;;;21174175;27;20100;-52
2022/05/17 23:54:41;;;;;;;6.68;5.00;;;11.90;99.90;;;;;;21220762;27;20061;-52
